Flight Track Log - Related Links

Times and Time Zones

All times are in EDT time to prevent confusion due to time zone crossing. See the NCB1120 flight status page for this flight to view local times or setup timezone preferences in your user account.

Time Position Orientation Groundspeed Altitude Reporting Facility
EDT Latitude Longitude Course Direction KTS MPH feet Rate Location/Type
Thu 11:05:00 AM 51.1000 -114.0333 360° North 120 138 4,800  Level Edmonton Center
Thu 11:06:00 AM 51.1333 -114.0500 343° North 140 161 5,500 800 Climbing Edmonton Center
Thu 11:07:00 AM 51.1833 -114.0333 12° North 160 184 6,400 900 Climbing Edmonton Center
Thu 11:08:00 AM 51.2167 -114.0333 360° North 160 184 7,300 950 Climbing Edmonton Center
Thu 11:09:00 AM 51.2667 -114.0167 12° North 150 173 8,300 900 Climbing Edmonton Center
Thu 11:10:00 AM 51.3000 -114.0333 343° North 160 184 9,100 850 Climbing Edmonton Center
Thu 11:11:00 AM 51.3667 -114.0167 North 160 184 10,000 850 Climbing Edmonton Center
Thu 11:12:00 AM 51.4167 -114.0167 360° North 160 184 10,800 800 Climbing Edmonton Center
Thu 11:13:00 AM 51.4500 -114.0000 17° North 170 196 11,600 800 Climbing Edmonton Center
Thu 11:14:00 AM 51.5000 -114.0167 348° North 170 196 12,400 800 Climbing Edmonton Center
Thu 11:15:00 AM 51.5500 -114.0000 12° North 180 207 13,200 850 Climbing Edmonton Center
Thu 11:16:00 AM 51.6000 -114.0000 360° North 170 196 14,100 850 Climbing Edmonton Center
Thu 11:17:00 AM 51.6500 -113.9833 12° North 170 196 14,900 700 Climbing Edmonton Center
Thu 11:18:00 AM 51.7000 -114.0000 348° North 180 207 15,500 700 Climbing Edmonton Center
Thu 11:19:00 AM 51.7500 -113.9833 12° North 180 207 16,300 750 Climbing Edmonton Center
Thu 11:20:00 AM 51.8000 -114.0000 348° North 180 207 17,000 650 Climbing Edmonton Center
Thu 11:21:00 AM 51.8500 -113.9833 12° North 190 219 17,600 600 Climbing Edmonton Center
Thu 11:22:00 AM 51.9000 -113.9833 360° North 200 230 18,200 650 Climbing Edmonton Center
Thu 11:23:00 AM 51.9500 -113.9667 12° North 200 230 18,900 650 Climbing Edmonton Center
Thu 11:24:00 AM 52.0000 -113.9833 348° North 190 219 19,500 500 Climbing Edmonton Center
Thu 11:25:00 AM 52.0833 -113.9667 North 190 219 19,900 400 Climbing Edmonton Center
Thu 11:26:00 AM 52.1333 -113.9500 12° North 200 230 20,300 450 Climbing Edmonton Center
Thu 11:27:00 AM 52.1833 -113.9667 348° North 200 230 20,800 450 Climbing Edmonton Center
Thu 11:28:00 AM 52.2500 -113.9500 North 200 230 21,200 400 Climbing Edmonton Center
Thu 11:29:00 AM 52.3000 -113.9667 348° North 200 230 21,600 400 Climbing Edmonton Center
Thu 11:30:00 AM 52.3500 -113.9500 12° North 200 230 22,000 400 Climbing Edmonton Center
Thu 11:31:00 AM 52.4000 -113.9500 360° North 200 230 22,400 350 Climbing Edmonton Center
Thu 11:32:00 AM 52.4667 -113.9500 360° North 200 230 22,700 300 Climbing Edmonton Center
Thu 11:33:00 AM 52.5167 -113.9333 11° North 200 230 23,000 300 Climbing Edmonton Center
Thu 11:34:00 AM 52.5667 -113.9333 360° North 200 230 23,300 100 Climbing Edmonton Center
Thu 11:35:00 AM 52.6333 -113.9167 North 210 242 23,200 -50 Descending Edmonton Center
Thu 11:36:00 AM 52.6833 -113.9333 349° North 220 253 23,200 -100 Level Edmonton Center
Thu 11:37:00 AM 52.7667 -113.9167 North 230 265 23,000 -100 Descending Edmonton Center
Thu 11:38:00 AM 52.8333 -113.9000 North 240 276 23,000  Level Edmonton Center
Thu 11:39:00 AM 52.9000 -113.9167 351° North 230 265 23,000  Level Edmonton Center
Thu 11:40:00 AM 52.9500 -113.8500 39° Northeast 240 276 23,000  Level Edmonton Center
Thu 11:41:00 AM 53.0000 -113.8000 31° Northeast 240 276 23,000  Level Edmonton Center
Thu 11:42:00 AM 53.0667 -113.7333 31° Northeast 240 276 23,000  Level Edmonton Center
Thu 11:43:00 AM 53.1167 -113.6833 31° Northeast 240 276 23,000  Level Edmonton Center
Thu 11:44:00 AM 53.1833 -113.6500 17° North 240 276 23,000  Level Edmonton Center
Thu 11:45:00 AM 53.2500 -113.5667 37° Northeast 240 276 23,000  Level Edmonton Center
Thu 11:46:00 AM 53.3000 -113.5333 22° Northeast 240 276 23,000  Level Edmonton Center
Thu 11:47:00 AM 53.3500 -113.4500 45° Northeast 240 276 23,000  Level Edmonton Center
Thu 11:48:00 AM 53.4167 -113.4000 24° Northeast 240 276 23,000  Level Edmonton Center
Thu 11:49:00 AM 53.4667 -113.3667 22° Northeast 240 276 23,000  Level Edmonton Center
Thu 11:50:00 AM 53.5333 -113.2833 37° Northeast 230 265 23,000  Level Edmonton Center
Thu 11:51:00 AM 53.6000 -113.2500 17° North 230 265 23,000  Level Edmonton Center
Thu 11:52:00 AM 53.6500 -113.2000 31° Northeast 230 265 23,000  Level Edmonton Center
Thu 11:53:00 AM 53.7000 -113.1167 45° Northeast 230 265 23,000  Level Edmonton Center
Thu 11:54:00 AM 53.7667 -113.0833 16° North 230 265 23,000  Level Edmonton Center
Thu 11:55:00 AM 53.8167 -113.0333 31° Northeast 230 265 23,000  Level Edmonton Center
Thu 11:56:00 AM 53.8667 -112.9500 44° Northeast 230 265 23,000  Level Edmonton Center
Thu 11:57:00 AM 53.9167 -112.9167 21° North 230 265 23,000  Level Edmonton Center
Thu 11:58:00 AM 53.9833 -112.8667 24° Northeast 230 265 23,000  Level Edmonton Center
Thu 11:59:00 AM 54.0500 -112.7833 36° Northeast 230 265 23,000  Level Edmonton Center
Thu 12:00:00 PM 54.0833 -112.7333 41° Northeast 220 253 23,000  Level Edmonton Center
Thu 12:01:00 PM 54.1333 -112.7167 11° North 210 242 23,000  Level Edmonton Center
Thu 12:02:00 PM 54.2000 -112.6667 24° Northeast 210 242 23,000  Level Edmonton Center
Thu 12:03:00 PM 54.2500 -112.6167 30° Northeast 200 230 23,000  Level Edmonton Center
Thu 12:04:00 PM 54.3000 -112.5833 21° North 200 230 23,000  Level Edmonton Center
Thu 12:05:00 PM 54.3500 -112.5500 21° North 200 230 23,000  Level Edmonton Center
Thu 12:06:00 PM 54.4167 -112.5167 16° North 210 242 23,000 -50 Level Edmonton Center
Thu 12:07:00 PM 54.4667 -112.4667 30° Northeast 220 253 22,900 -650 Descending Edmonton Center
Thu 12:08:00 PM 54.5167 -112.4167 30° Northeast 210 242 21,700 -1,200 Descending Edmonton Center
Thu 12:09:00 PM 54.5667 -112.3667 30° Northeast 210 242 20,500 -1,250 Descending Edmonton Center
Thu 12:10:00 PM 54.6167 -112.3500 11° North 200 230 19,200 -1,400 Descending Edmonton Center
Thu 12:11:00 PM 54.6833 -112.3000 23° Northeast 200 230 17,700 -1,550 Descending Edmonton Center
Thu 12:12:00 PM 54.7333 -112.2500 30° Northeast 200 230 16,100 -1,600 Descending Edmonton Center
Thu 12:13:00 PM 54.7833 -112.2000 30° Northeast 200 230 14,500 -1,650 Descending Edmonton Center
Thu 12:14:00 PM 54.8167 -112.1833 16° North 190 219 12,800 -1,600 Descending Edmonton Center
Thu 12:15:00 PM 54.8833 -112.1333 23° Northeast 200 230 11,300 -1,450 Descending Edmonton Center
Thu 12:16:00 PM 54.9333 -112.1000 21° North 210 242 9,900 -1,450 Descending Edmonton Center
Thu 12:17:00 PM 55.0000 -112.0667 16° North 210 242 8,400 -1,400 Descending Edmonton Center
Thu 12:18:00 PM 55.0500 -112.0333 21° North 210 242 7,100 -1,000 Descending Edmonton Center
Thu 12:19:00 PM 55.1000 -111.9833 30° Northeast 210 242 6,400 -550 Descending Edmonton Center
Thu 12:20:00 PM 55.1667 -111.9333 23° Northeast 200 230 6,000 -200 Descending Edmonton Center
Thu 12:21:00 PM 55.2000 -111.9167 16° North 190 219 6,000  Level Edmonton Center
Thu 12:22:00 PM 55.2167 -111.8333 71° East 190 219 6,000  Level Edmonton Center
Thu 12:23:00 PM 55.2333 -111.7500 71° East 190 219 6,000  Level Edmonton Center
Thu 12:24:00 PM 55.2667 -111.6667 55° Northeast 190 219 6,000  Level Edmonton Center
Thu 12:25:00 PM 55.2833 -111.5667 74° East 200 230 6,000  Level Edmonton Center
Thu 12:26:00 PM 55.3167 -111.4833 55° Northeast 200 230 6,000  Level Edmonton Center
Thu 12:27:00 PM 55.3500 -111.4000 55° Northeast 200 230 6,000  Level Edmonton Center
Thu 12:28:00 PM 55.3500 -111.3167 90° East 180 207 6,000 -150 Level Edmonton Center
Thu 12:29:00 PM 55.3667 -111.2333 71° East 160 184 5,700 -550 Descending Edmonton Center
Thu 12:30:00 PM 55.3500 -111.1333 106° East 180 207 4,900 -700 Descending Edmonton Center
Thu 12:31:00 PM 55.3667 -111.0500 71° East 200 230 4,300 -550 Descending Edmonton Center
Thu 12:32:00 PM 55.3500 -110.9500 106° East 190 219 3,800 -500 Descending Edmonton Center
Thu 12:35:00 PM 55.3374 -110.7340 78° East  Level FlightAware Approximate
Thu 12:42:00 PM 55.3500 -110.6333 78° East  Level FlightAware Approximate
Thu 12:43:00 PM 55.3556 -110.6376 78° East  Level Estimated
Thu 12:44:00 PM 55.3500 -110.6333 78° East  Level FlightAware Approximate
Thu 12:45:00 PM 55.3556 -110.6376 78° East  Level Estimated
Thu 12:46:00 PM 55.3500 -110.6333 78° East  Level FlightAware Approximate
Thu 12:47:00 PM 55.3556 -110.6376 78° East  Level Estimated

Login

Don't have an account? Register now (free) for customized features, flight alerts, and more!